Spring Lk Pk, Minnesota
Current Conditions -  °F | °C
As of 3:03 PM on Monday 24 Nov 2014 (Local Time) from KANE Reporting Station
Light Snow Light Snow  
Wind Chill:   Ceiling: 2300
Heat Index: 21°   Visibility: 2mi
Dew Point: 18°   Wind: 20mph
Humidity: 86%   Direction: 290°WNW
Pressure: 29.56"   Gusts: 29mph
Location:  45.0968°N, 93.2542°W
Report Text: KANE 242103Z 29017G25KT 2SM -SN SCT012 BKN023 OVC050 M06/M08 A2956
Loading
Personal Weather Stations






























Interactive Weather Map New forecast layout! Learn more

10-Day Weather Forecast

Advertisements
Track Severe Weather on mobile